Time;durP1;ratioP1;P1;durP2;ratioP2;P2;SDS_P1;SDS_P2;PMS_P1;PMS_P2;Temp;Humidity;BMP_temperature;BMP_pressure;BME280_temperature;BME280_humidity;BME280_pressure;Samples;Min_cycle;Max_cycle;Signal;HPM_P1;HPM_P2
2021/12/05 00:25:29;;;;;;;14.10;4.07;;;3.80;99.90;;;;;;5054862;28;20048;-73
2021/12/05 00:37:18;;;;;;;12.45;4.50;;;4.00;99.90;;;;;;5072333;28;20102;-73
2021/12/05 00:47:11;;;;;;;13.90;5.47;;;4.20;99.90;;;;;;5072273;28;20052;-73
2021/12/05 00:55:10;;;;;;;16.70;5.82;;;4.20;99.90;;;;;;5072246;28;20052;-73
2021/12/05 01:02:58;;;;;;;16.48;6.72;;;4.20;99.90;;;;;;5071983;28;20123;-73
2021/12/05 01:11:14;;;;;;;19.60;5.55;;;4.20;99.90;;;;;;5092344;28;20413;-73
2021/12/05 01:16:07;;;;;;;13.40;6.40;;;4.10;99.90;;;;;;5095908;28;20054;-73
2021/12/05 01:18:34;;;;;;;12.30;5.68;;;4.10;99.90;;;;;;5095762;28;20031;-73
2021/12/05 01:21:07;;;;;;;10.90;5.43;;;4.00;99.90;;;;;;5095498;28;20048;-73
2021/12/05 01:28:56;;;;;;;9.57;5.63;;;3.90;99.90;;;;;;5095716;28;20047;-73
2021/12/05 01:31:23;;;;;;;13.15;5.85;;;3.90;99.90;;;;;;5094378;28;20356;-73
2021/12/05 01:39:08;;;;;;;11.02;5.20;;;3.90;99.90;;;;;;5095257;28;20076;-73
2021/12/05 02:33:30;;;;;;;19.48;8.35;;;4.20;99.90;;;;;;5074197;28;20044;-73
2021/12/05 02:36:22;;;;;;;17.10;9.00;;;4.20;99.90;;;;;;5074035;28;20040;-72
2021/12/05 02:41:46;;;;;;;15.40;8.35;;;4.30;99.90;;;;;;4992574;28;20050;-73
2021/12/05 02:44:24;;;;;;;20.30;8.63;;;4.30;99.90;;;;;;5058343;28;20056;-73
2021/12/05 02:47:04;;;;;;;16.52;8.07;;;4.40;99.90;;;;;;5073757;28;20488;-73
2021/12/05 02:49:32;;;;;;;18.90;9.10;;;4.40;99.90;;;;;;5073802;28;20044;-73
2021/12/05 02:52:06;;;;;;;24.13;10.15;;;4.40;99.90;;;;;;5073685;28;20055;-73
2021/12/05 02:54:44;;;;;;;24.98;10.55;;;4.40;99.90;;;;;;5073584;28;20049;-73
2021/12/05 02:57:11;;;;;;;23.58;10.07;;;4.40;99.90;;;;;;5056197;28;20412;-73
2021/12/05 03:02:11;;;;;;;19.77;9.50;;;4.40;99.90;;;;;;5073664;28;20083;-73
2021/12/05 03:04:41;;;;;;;22.58;10.38;;;4.30;99.90;;;;;;5085265;28;20086;-73
2021/12/05 03:07:09;;;;;;;21.98;10.25;;;4.30;99.90;;;;;;5093524;28;20047;-73
2021/12/05 03:09:36;;;;;;;19.45;10.23;;;4.30;99.90;;;;;;5071934;28;20060;-73
2021/12/05 03:12:04;;;;;;;23.75;10.60;;;4.30;99.90;;;;;;5073472;28;20127;-73
2021/12/05 03:14:30;;;;;;;29.67;11.70;;;4.20;99.90;;;;;;5073033;28;20476;-73
2021/12/05 03:16:56;;;;;;;20.63;11.60;;;4.20;99.90;;;;;;5073399;28;20045;-73
2021/12/05 03:19:22;;;;;;;26.77;11.25;;;4.20;99.90;;;;;;5072941;28;20049;-74
2021/12/05 03:21:51;;;;;;;21.50;10.30;;;4.10;99.90;;;;;;5073059;28;20101;-73
2021/12/05 03:24:18;;;;;;;23.83;12.88;;;4.10;99.90;;;;;;5072274;28;20762;-72
2021/12/05 03:26:48;;;;;;;26.20;11.57;;;4.00;99.90;;;;;;5073294;28;20044;-73
2021/12/05 03:29:16;;;;;;;26.08;12.13;;;3.90;99.90;;;;;;5072320;28;20121;-73
2021/12/05 03:31:42;;;;;;;25.83;12.45;;;3.90;99.90;;;;;;5073079;28;20080;-73
2021/12/05 03:34:11;;;;;;;28.40;12.25;;;3.90;99.90;;;;;;5072802;28;20133;-73
2021/12/05 03:36:41;;;;;;;29.95;12.70;;;3.80;99.90;;;;;;5072485;28;20186;-72
2021/12/05 03:39:08;;;;;;;28.38;11.25;;;3.70;99.90;;;;;;5072801;28;20036;-73
2021/12/05 03:41:35;;;;;;;30.80;12.82;;;3.60;99.90;;;;;;5073118;28;20040;-73
2021/12/05 03:44:04;;;;;;;30.13;14.52;;;3.60;99.90;;;;;;5072865;28;20419;-72
2021/12/05 03:46:30;;;;;;;30.30;12.82;;;3.50;99.90;;;;;;5072682;28;20368;-72
2021/12/05 03:48:59;;;;;;;27.00;13.88;;;3.40;99.90;;;;;;5072577;28;20054;-73
2021/12/05 03:51:28;;;;;;;27.63;14.25;;;3.30;99.90;;;;;;5071794;28;20058;-73
2021/12/05 03:53:54;;;;;;;33.95;15.05;;;3.30;99.90;;;;;;5072607;28;20047;-73
2021/12/05 03:56:20;;;;;;;22.75;12.40;;;3.20;99.90;;;;;;5072651;28;20040;-73
2021/12/05 03:58:48;;;;;;;27.67;14.40;;;3.20;99.90;;;;;;5072321;28;20451;-72
2021/12/05 04:01:14;;;;;;;26.67;12.80;;;3.20;99.90;;;;;;5072611;28;20174;-73
2021/12/05 04:03:43;;;;;;;23.25;10.80;;;3.20;99.90;;;;;;5068718;28;20541;-73
2021/12/05 04:06:11;;;;;;;22.45;11.48;;;3.10;99.90;;;;;;5052107;28;20094;-73
2021/12/05 04:08:41;;;;;;;40.28;13.40;;;3.00;99.90;;;;;;5058683;28;20048;-73
2021/12/05 04:11:26;;;;;;;22.77;11.93;;;3.00;99.90;;;;;;5072224;28;20044;-73
2021/12/05 04:13:52;;;;;;;23.10;10.68;;;3.00;99.90;;;;;;5072339;28;20361;-73
2021/12/05 04:16:19;;;;;;;24.52;11.73;;;2.90;99.90;;;;;;5072470;28;20041;-73
2021/12/05 04:18:47;;;;;;;24.15;12.55;;;2.90;99.90;;;;;;5072445;28;20079;-73
2021/12/05 04:21:14;;;;;;;26.98;13.02;;;3.00;99.90;;;;;;5072279;28;20055;-73
2021/12/05 04:23:40;;;;;;;28.60;12.73;;;2.90;99.90;;;;;;5072183;28;20047;-73
2021/12/05 04:26:06;;;;;;;21.25;11.38;;;3.00;99.90;;;;;;5072363;28;20036;-72
2021/12/05 04:28:33;;;;;;;22.85;12.25;;;3.10;99.90;;;;;;5072175;28;20058;-73
2021/12/05 04:30:59;;;;;;;28.60;12.27;;;3.10;99.90;;;;;;5071925;28;20518;-73
2021/12/05 04:33:25;;;;;;;27.27;12.13;;;3.10;99.90;;;;;;5054693;28;20074;-72
2021/12/05 04:35:51;;;;;;;23.05;11.70;;;3.20;99.90;;;;;;5072182;28;20111;-73
2021/12/05 04:38:17;;;;;;;20.38;11.15;;;3.20;99.90;;;;;;5071957;28;20476;-73
2021/12/05 04:40:45;;;;;;;22.65;10.90;;;3.20;99.90;;;;;;5071804;28;20040;-73
2021/12/05 04:43:11;;;;;;;23.20;10.63;;;3.10;99.90;;;;;;5071884;28;20044;-73
2021/12/05 04:45:37;;;;;;;24.80;11.10;;;3.10;99.90;;;;;;5071567;28;20044;-73
2021/12/05 04:48:05;;;;;;;23.75;11.23;;;3.00;99.90;;;;;;5072598;28;20529;-73
2021/12/05 04:50:33;;;;;;;28.00;11.05;;;3.00;99.90;;;;;;5075983;28;20055;-73
2021/12/05 04:52:59;;;;;;;21.40;10.07;;;2.90;99.90;;;;;;5076208;28;20032;-73
2021/12/05 04:55:25;;;;;;;25.55;11.70;;;2.90;99.90;;;;;;5075850;28;20044;-73
2021/12/05 04:57:53;;;;;;;27.65;12.07;;;2.90;99.90;;;;;;5075865;28;20084;-73
2021/12/05 05:00:26;;;;;;;28.88;12.18;;;2.90;99.90;;;;;;5075865;28;20416;-73
2021/12/05 05:02:53;;;;;;;22.92;11.27;;;2.90;99.90;;;;;;5075856;28;20442;-73
2021/12/05 05:05:20;;;;;;;25.05;10.88;;;3.00;99.90;;;;;;5093320;28;20032;-73
2021/12/05 05:07:46;;;;;;;22.25;10.55;;;2.90;99.90;;;;;;5095971;28;20036;-72
2021/12/05 05:10:21;;;;;;;21.95;10.27;;;2.90;99.90;;;;;;5095684;28;20523;-73
2021/12/05 05:12:47;;;;;;;24.40;10.75;;;2.90;99.90;;;;;;5095714;28;20047;-73
2021/12/05 05:15:18;;;;;;;21.70;9.57;;;2.90;99.90;;;;;;5095699;28;20063;-73
2021/12/05 05:17:44;;;;;;;20.08;9.43;;;2.90;99.90;;;;;;5095919;28;20048;-73
2021/12/05 05:20:22;;;;;;;22.17;10.63;;;2.90;99.90;;;;;;5095735;28;20058;-73
2021/12/05 05:28:47;;;;;;;15.25;9.45;;;2.70;99.90;;;;;;5057251;28;20127;-73
2021/12/05 05:44:42;;;;;;;17.90;7.18;;;2.70;99.90;;;;;;5095483;28;20047;-73
2021/12/05 05:52:15;;;;;;;16.73;7.75;;;2.80;99.90;;;;;;5077366;28;20048;-73
2021/12/05 05:54:45;;;;;;;17.50;7.40;;;2.80;99.90;;;;;;5095264;28;20092;-73
2021/12/05 05:57:48;;;;;;;16.65;7.35;;;2.90;99.90;;;;;;5095086;28;20630;-73
2021/12/05 06:00:12;;;;;;;14.73;6.60;;;2.90;99.90;;;;;;5073198;28;20080;-73
2021/12/05 06:05:23;;;;;;;21.30;7.90;;;2.90;99.90;;;;;;5076645;28;20051;-73
2021/12/05 06:07:49;;;;;;;13.85;5.50;;;3.00;99.90;;;;;;5074829;28;20044;-72
2021/12/05 06:10:19;;;;;;;23.10;7.75;;;3.00;99.90;;;;;;5074647;28;20056;-73
2021/12/05 06:12:45;;;;;;;16.50;6.50;;;3.00;99.90;;;;;;5075049;28;20355;-73
2021/12/05 06:15:15;;;;;;;13.95;5.28;;;3.00;99.90;;;;;;5074841;28;20044;-73
2021/12/05 06:17:41;;;;;;;17.67;5.50;;;3.00;99.90;;;;;;5074698;28;20273;-73
2021/12/05 06:20:17;;;;;;;16.08;5.97;;;3.10;99.90;;;;;;5074834;28;20040;-73
2021/12/05 06:22:45;;;;;;;12.75;5.22;;;3.10;99.90;;;;;;5074703;28;20036;-73
2021/12/05 06:25:17;;;;;;;14.25;5.70;;;3.10;99.90;;;;;;5074423;28;20040;-73
2021/12/05 06:27:43;;;;;;;11.57;5.60;;;3.10;99.90;;;;;;5074528;28;20084;-73
2021/12/05 06:30:14;;;;;;;21.33;6.28;;;3.10;99.90;;;;;;5074498;28;20048;-73
2021/12/05 06:38:08;;;;;;;17.42;7.05;;;3.10;99.90;;;;;;5074344;28;20473;-73
2021/12/05 06:40:53;;;;;;;18.20;7.40;;;3.10;99.90;;;;;;5074267;28;20179;-73
2021/12/05 06:46:10;;;;;;;17.00;7.75;;;3.10;99.90;;;;;;5056574;28;20393;-73
2021/12/05 06:48:36;;;;;;;19.00;7.82;;;3.10;99.90;;;;;;5074314;28;20037;-73
2021/12/05 06:51:04;;;;;;;26.55;8.93;;;3.10;99.90;;;;;;5074100;28;20051;-72
2021/12/05 06:53:30;;;;;;;29.83;10.05;;;3.10;99.90;;;;;;5074084;28;20106;-72
2021/12/05 06:55:55;;;;;;;18.65;7.57;;;3.10;99.90;;;;;;5074070;28;20040;-73
2021/12/05 06:58:22;;;;;;;18.70;9.13;;;3.10;99.90;;;;;;5074099;28;20050;-73
2021/12/05 07:00:47;;;;;;;18.90;8.30;;;3.10;99.90;;;;;;5074058;28;20132;-73
2021/12/05 07:03:13;;;;;;;21.55;9.10;;;3.20;99.90;;;;;;5074049;28;20131;-73
2021/12/05 07:08:27;;;;;;;16.45;8.13;;;3.20;99.90;;;;;;5093995;28;20055;-73
2021/12/05 07:11:03;;;;;;;15.17;7.37;;;3.20;99.90;;;;;;5093280;28;20131;-73
2021/12/05 07:21:18;;;;;;;21.20;8.65;;;3.30;99.90;;;;;;5093813;28;20369;-74
2021/12/05 07:42:26;;;;;;;24.10;10.40;;;3.50;99.90;;;;;;5093371;28;20510;-73
2021/12/05 07:44:53;;;;;;;16.95;9.70;;;3.50;99.90;;;;;;5093473;28;20040;-73
2021/12/05 07:47:21;;;;;;;26.70;9.98;;;3.40;99.90;;;;;;5093136;28;20079;-72
2021/12/05 07:49:48;;;;;;;24.15;10.15;;;3.50;99.90;;;;;;5093089;28;20048;-72
2021/12/05 07:52:19;;;;;;;21.83;10.50;;;3.50;99.90;;;;;;5093268;28;20043;-72
2021/12/05 07:54:50;;;;;;;20.83;11.10;;;3.50;99.90;;;;;;5093194;28;20119;-73
2021/12/05 07:57:21;;;;;;;21.13;10.10;;;3.50;99.90;;;;;;5093103;28;20413;-74
2021/12/05 08:16:11;;;;;;;26.45;12.35;;;3.60;99.90;;;;;;5052600;28;20118;-74
2021/12/05 08:18:37;;;;;;;22.77;11.43;;;3.60;99.90;;;;;;5052501;28;20353;-74
2021/12/05 08:21:06;;;;;;;25.48;11.68;;;3.60;99.90;;;;;;5052725;28;20063;-74
2021/12/05 08:23:32;;;;;;;24.88;12.07;;;3.70;99.90;;;;;;5051621;28;20045;-74
2021/12/05 08:28:56;;;;;;;20.15;10.45;;;3.70;99.90;;;;;;5052463;28;20049;-74
2021/12/05 08:41:58;;;;;;;21.40;11.88;;;3.80;99.90;;;;;;5052352;28;20048;-72
2021/12/05 09:25:36;;;;;;;23.58;12.60;;;4.00;99.90;;;;;;5092172;28;20040;-73
2021/12/05 09:30:46;;;;;;;22.35;11.35;;;4.10;99.90;;;;;;5092118;28;20040;-73
2021/12/05 09:39:19;;;;;;;28.92;11.70;;;4.20;99.90;;;;;;5109983;28;20105;-74
2021/12/05 10:14:57;;;;;;;27.00;12.95;;;4.40;99.90;;;;;;5095927;28;20086;-72
2021/12/05 10:34:45;;;;;;;19.83;10.60;;;4.60;99.90;;;;;;5095445;28;20528;-73
2021/12/05 10:37:20;;;;;;;22.67;11.02;;;4.60;99.90;;;;;;5094366;28;20066;-73
2021/12/05 10:39:47;;;;;;;18.48;11.25;;;4.60;99.90;;;;;;5095422;28;20040;-74
2021/12/05 10:42:40;;;;;;;19.33;10.10;;;4.60;99.90;;;;;;5094437;28;20043;-73
2021/12/05 10:45:28;;;;;;;18.90;9.75;;;4.60;99.90;;;;;;5094426;28;20046;-73
2021/12/05 10:47:56;;;;;;;19.48;10.15;;;4.50;99.90;;;;;;5094707;28;20070;-73
2021/12/05 10:50:45;;;;;;;23.48;9.93;;;4.60;99.90;;;;;;5076536;28;20067;-74
2021/12/05 10:53:38;;;;;;;16.00;9.48;;;4.60;99.90;;;;;;5095035;28;20459;-74
2021/12/05 10:56:25;;;;;;;15.20;9.40;;;4.60;99.90;;;;;;5095086;28;20524;-73
2021/12/05 10:59:03;;;;;;;18.30;9.77;;;4.60;99.90;;;;;;5094922;28;20460;-73
2021/12/05 11:01:43;;;;;;;17.02;9.68;;;4.60;99.90;;;;;;5094855;28;20047;-74
2021/12/05 11:04:20;;;;;;;20.50;9.27;;;4.60;99.90;;;;;;5087068;28;20429;-74
2021/12/05 11:06:50;;;;;;;17.77;9.50;;;4.60;99.90;;;;;;5079440;28;20040;-74
2021/12/05 11:09:25;;;;;;;14.60;9.05;;;4.60;99.90;;;;;;5093957;28;20457;-72
2021/12/05 11:12:03;;;;;;;14.93;9.30;;;4.60;99.90;;;;;;5094596;28;20043;-74
2021/12/05 11:14:38;;;;;;;19.15;9.20;;;4.60;99.90;;;;;;5076323;28;20105;-74
2021/12/05 11:17:13;;;;;;;15.60;9.60;;;4.60;99.90;;;;;;5094108;28;20048;-74
2021/12/05 11:19:46;;;;;;;17.25;9.15;;;4.60;99.90;;;;;;5076141;28;20143;-73
2021/12/05 11:22:22;;;;;;;15.50;8.88;;;4.70;99.90;;;;;;5076231;28;20047;-74
2021/12/05 11:24:52;;;;;;;20.38;9.82;;;4.70;99.90;;;;;;5093749;28;20118;-74
2021/12/05 11:27:38;;;;;;;21.38;10.13;;;4.70;99.90;;;;;;5093780;28;20392;-74
2021/12/05 11:30:18;;;;;;;14.85;9.50;;;4.60;99.90;;;;;;5093662;28;20094;-74
2021/12/05 11:33:01;;;;;;;20.08;10.13;;;4.70;99.90;;;;;;5093611;28;20043;-74
2021/12/05 11:35:29;;;;;;;18.90;9.10;;;4.70;99.90;;;;;;5093391;28;20042;-74
2021/12/05 11:38:13;;;;;;;16.25;9.93;;;4.70;99.90;;;;;;5093655;28;20039;-74
2021/12/05 11:41:02;;;;;;;14.00;9.27;;;4.70;99.90;;;;;;5093356;28;20136;-75
2021/12/05 11:43:47;;;;;;;16.20;9.30;;;4.70;99.90;;;;;;5093402;28;20048;-75
2021/12/05 11:46:20;;;;;;;13.80;8.95;;;4.70;99.90;;;;;;5093301;28;20437;-74
2021/12/05 11:48:56;;;;;;;15.88;9.38;;;4.70;99.90;;;;;;5093502;28;20369;-74
2021/12/05 11:51:34;;;;;;;16.27;9.43;;;4.70;99.90;;;;;;5093361;28;20040;-73
2021/12/05 11:54:11;;;;;;;32.47;9.82;;;4.70;99.90;;;;;;5093218;28;20031;-74
2021/12/05 11:57:00;;;;;;;16.58;9.48;;;4.70;99.90;;;;;;5093039;28;20131;-74
2021/12/05 11:59:31;;;;;;;14.98;9.52;;;4.70;99.90;;;;;;5093177;28;20115;-74
2021/12/05 12:02:09;;;;;;;17.48;8.75;;;4.70;99.90;;;;;;5093294;28;20048;-74
2021/12/05 12:04:48;;;;;;;14.35;9.20;;;4.70;99.90;;;;;;5081350;28;20051;-74
2021/12/05 12:07:34;;;;;;;15.68;9.27;;;4.70;99.90;;;;;;5072571;28;20131;-74
2021/12/05 12:10:15;;;;;;;11.73;9.15;;;4.70;99.90;;;;;;5072060;28;20067;-74
2021/12/05 12:12:45;;;;;;;16.52;9.45;;;4.70;99.90;;;;;;5072639;28;20049;-74
2021/12/05 12:15:11;;;;;;;13.68;8.77;;;4.70;99.90;;;;;;5072596;28;20127;-74
2021/12/05 12:17:37;;;;;;;14.65;8.68;;;4.70;99.90;;;;;;5072460;28;20090;-78
2021/12/05 12:20:09;;;;;;;16.83;8.52;;;4.70;99.90;;;;;;5055146;28;20044;-74
2021/12/05 12:22:35;;;;;;;14.10;9.88;;;4.70;99.90;;;;;;5072645;28;20357;-74
2021/12/05 12:25:07;;;;;;;14.45;8.60;;;4.80;99.90;;;;;;5072504;28;20112;-74
2021/12/05 12:27:33;;;;;;;13.82;8.98;;;4.80;99.90;;;;;;5072511;28;20051;-74
2021/12/05 12:30:03;;;;;;;13.90;7.97;;;4.80;99.90;;;;;;5072361;28;20040;-74
2021/12/05 12:32:43;;;;;;;16.27;8.38;;;4.90;99.90;;;;;;5072649;28;20123;-74
2021/12/05 12:35:11;;;;;;;;;;;4.90;99.90;;;;;;5072539;28;20037;-74
2021/12/05 12:38:16;;;;;;;11.82;8.00;;;5.00;99.90;;;;;;5072400;28;19987;-74
2021/12/05 12:40:56;;;;;;;15.25;7.93;;;5.00;99.90;;;;;;5072405;28;20040;-74
2021/12/05 12:43:48;;;;;;;15.80;9.30;;;5.10;99.90;;;;;;5072326;28;20342;-74
2021/12/05 12:46:23;;;;;;;13.88;8.52;;;5.10;99.90;;;;;;5072186;28;20052;-74
2021/12/05 12:48:52;;;;;;;16.08;10.13;;;5.10;99.90;;;;;;5072445;28;20089;-74
2021/12/05 12:51:36;;;;;;;16.95;9.95;;;5.20;99.90;;;;;;5072409;28;20127;-74
2021/12/05 12:54:17;;;;;;;13.68;8.43;;;5.20;99.90;;;;;;5072292;28;20059;-74
2021/12/05 12:57:03;;;;;;;14.90;9.63;;;5.20;99.90;;;;;;5072145;28;20097;-74
2021/12/05 12:59:32;;;;;;;13.35;8.20;;;5.20;99.90;;;;;;5071743;28;20454;-74
2021/12/05 13:10:40;;;;;;;14.65;10.35;;;5.30;99.90;;;;;;5095053;28;20137;-74
2021/12/05 13:13:20;;;;;;;13.40;7.38;;;5.30;99.90;;;;;;5096192;28;20052;-74
2021/12/05 13:15:59;;;;;;;27.95;16.42;;;5.30;99.90;;;;;;5096291;28;20036;-74
2021/12/05 13:18:30;;;;;;;22.75;16.42;;;5.30;99.90;;;;;;5078430;28;20121;-74
2021/12/05 13:21:18;;;;;;;26.10;18.08;;;5.30;99.90;;;;;;5077023;28;20055;-74
2021/12/05 13:23:46;;;;;;;15.05;12.00;;;5.30;99.90;;;;;;5095598;28;20449;-75
2021/12/05 13:26:34;;;;;;;12.80;10.27;;;5.30;99.90;;;;;;5077993;28;20048;-75
2021/12/05 13:29:19;;;;;;;14.07;7.53;;;5.30;99.90;;;;;;5095999;28;20048;-75
2021/12/05 13:32:10;;;;;;;10.05;7.82;;;5.30;99.90;;;;;;5095471;28;20507;-74
2021/12/05 13:34:43;;;;;;;13.27;7.63;;;5.30;99.90;;;;;;5095813;28;20460;-74
2021/12/05 13:37:09;;;;;;;13.15;7.43;;;5.30;99.90;;;;;;5078128;28;20058;-74
2021/12/05 13:40:03;;;;;;;12.68;8.32;;;5.40;99.90;;;;;;5095708;28;20044;-75
2021/12/05 13:42:36;;;;;;;14.43;8.77;;;5.40;99.90;;;;;;5073847;28;20080;-74
2021/12/05 13:45:09;;;;;;;13.18;7.07;;;5.40;99.90;;;;;;5095802;28;20048;-74
2021/12/05 13:47:53;;;;;;;12.57;7.93;;;5.40;99.90;;;;;;5095584;28;20048;-74
2021/12/05 13:50:18;;;;;;;14.00;8.95;;;5.40;99.90;;;;;;5095239;28;20448;-73
2021/12/05 13:53:02;;;;;;;16.30;8.07;;;5.40;99.90;;;;;;5095265;28;20055;-73
2021/12/05 13:55:47;;;;;;;11.02;6.75;;;5.40;99.90;;;;;;5095399;28;20055;-75
2021/12/05 13:58:47;;;;;;;12.15;7.13;;;5.40;99.90;;;;;;5095512;28;20338;-73
2021/12/05 14:01:23;;;;;;;11.48;5.65;;;5.40;99.90;;;;;;5095362;28;20052;-73
2021/12/05 14:03:58;;;;;;;15.77;8.02;;;5.40;99.90;;;;;;5089922;28;20049;-72
2021/12/05 14:06:30;;;;;;;10.90;6.85;;;5.40;99.90;;;;;;5084964;28;20066;-73
2021/12/05 14:09:17;;;;;;;12.63;6.72;;;5.40;99.90;;;;;;5115055;28;20487;-73
2021/12/05 14:11:48;;;;;;;12.82;6.65;;;5.40;99.90;;;;;;5115542;28;20428;-73
2021/12/05 14:14:15;;;;;;;11.82;7.30;;;5.40;99.90;;;;;;5115407;28;20139;-73
2021/12/05 14:16:43;;;;;;;13.10;8.93;;;5.40;99.90;;;;;;5115473;28;20092;-73
2021/12/05 14:19:13;;;;;;;9.38;6.40;;;5.40;99.90;;;;;;5115427;28;20040;-73
2021/12/05 14:21:48;;;;;;;10.88;7.13;;;5.40;99.90;;;;;;5114006;28;20411;-77
2021/12/05 14:24:16;;;;;;;10.57;6.95;;;5.40;99.90;;;;;;5097495;28;20327;-73
2021/12/05 14:26:42;;;;;;;13.25;7.97;;;5.40;99.90;;;;;;5115276;28;20079;-73
2021/12/05 14:29:14;;;;;;;8.63;6.00;;;5.40;99.90;;;;;;5115454;28;20035;-74
2021/12/05 14:31:56;;;;;;;10.07;6.43;;;5.40;99.90;;;;;;5115176;28;20079;-74
2021/12/05 14:34:22;;;;;;;10.35;6.40;;;5.40;99.90;;;;;;5097419;28;20055;-73
2021/12/05 14:36:52;;;;;;;10.75;6.25;;;5.40;99.90;;;;;;5114694;28;20448;-74
2021/12/05 14:39:18;;;;;;;9.85;6.97;;;5.40;99.90;;;;;;5115079;28;20051;-74
2021/12/05 14:41:47;;;;;;;12.80;6.88;;;5.40;99.90;;;;;;5114620;28;20044;-74
2021/12/05 14:44:15;;;;;;;9.57;5.63;;;5.40;99.90;;;;;;5096829;28;20139;-72
2021/12/05 14:47:00;;;;;;;9.80;5.75;;;5.40;99.90;;;;;;5114398;28;20039;-72
2021/12/05 14:49:29;;;;;;;10.77;6.40;;;5.40;99.90;;;;;;5114863;28;20416;-72
2021/12/05 14:51:56;;;;;;;11.63;6.13;;;5.40;99.90;;;;;;5114523;28;20047;-72
2021/12/05 14:54:30;;;;;;;9.93;6.82;;;5.40;99.90;;;;;;5096736;28;20437;-72
2021/12/05 14:56:56;;;;;;;13.52;9.30;;;5.40;99.90;;;;;;5114032;28;20467;-72
2021/12/05 14:59:23;;;;;;;12.13;8.68;;;5.40;99.90;;;;;;5114513;28;20073;-73
2021/12/05 15:01:57;;;;;;;14.02;8.43;;;5.40;99.90;;;;;;5114275;28;20054;-73
2021/12/05 15:04:30;;;;;;;9.52;5.70;;;5.30;99.90;;;;;;5104339;28;20109;-73
2021/12/05 15:06:57;;;;;;;9.60;6.65;;;5.30;99.90;;;;;;5076067;28;20044;-72
2021/12/05 15:09:31;;;;;;;10.90;7.03;;;5.30;99.90;;;;;;5093816;28;20531;-73
2021/12/05 15:12:02;;;;;;;13.13;9.55;;;5.30;99.90;;;;;;5093639;28;20043;-73
2021/12/05 15:14:28;;;;;;;12.27;8.00;;;5.20;99.90;;;;;;5093655;28;20062;-73
2021/12/05 15:17:04;;;;;;;15.95;8.90;;;5.20;99.90;;;;;;5093654;28;20050;-74
2021/12/05 15:19:31;;;;;;;17.27;9.90;;;5.10;99.90;;;;;;5094168;28;20044;-74
2021/12/05 15:21:57;;;;;;;19.70;11.30;;;5.10;99.90;;;;;;5093764;28;20043;-72
2021/12/05 15:24:27;;;;;;;14.23;9.43;;;5.10;99.90;;;;;;5093929;28;20040;-73
2021/12/05 15:26:54;;;;;;;13.17;9.33;;;5.10;99.90;;;;;;5093680;28;20043;-73
2021/12/05 15:29:20;;;;;;;16.13;11.93;;;5.00;99.90;;;;;;5093752;28;20460;-74
2021/12/05 15:31:46;;;;;;;10.68;6.78;;;5.00;99.90;;;;;;5093181;28;20075;-74
2021/12/05 15:34:26;;;;;;;12.13;7.32;;;5.00;99.90;;;;;;5075955;28;20157;-74
2021/12/05 15:36:52;;;;;;;13.68;7.95;;;5.00;99.90;;;;;;5093456;28;20043;-73
2021/12/05 15:39:23;;;;;;;11.82;7.43;;;5.00;99.90;;;;;;5094470;28;20127;-79
2021/12/05 15:41:51;;;;;;;11.57;7.47;;;5.00;99.90;;;;;;5095029;28;20046;-75
2021/12/05 15:44:37;;;;;;;10.77;7.10;;;4.90;99.90;;;;;;5094308;28;20091;-73
2021/12/05 15:47:16;;;;;;;12.70;7.60;;;4.90;99.90;;;;;;5075679;28;20456;-74
2021/12/05 15:49:54;;;;;;;10.10;6.75;;;4.90;99.90;;;;;;5093470;28;20169;-73
2021/12/05 15:52:39;;;;;;;12.98;8.10;;;4.80;99.90;;;;;;5093395;28;20127;-73
2021/12/05 15:55:16;;;;;;;12.50;8.93;;;4.80;99.90;;;;;;5094038;28;20083;-74
2021/12/05 15:57:46;;;;;;;14.25;9.02;;;4.70;99.90;;;;;;5093690;28;20449;-74
2021/12/05 16:00:15;;;;;;;;;;;4.70;99.90;;;;;;5094125;28;20051;-73
2021/12/05 16:02:46;;;;;;;18.42;9.98;;;4.60;99.90;;;;;;5093693;28;19915;-75
2021/12/05 16:05:19;;;;;;;16.20;11.02;;;4.60;99.90;;;;;;5077376;28;20322;-72
2021/12/05 16:07:46;;;;;;;13.40;8.23;;;4.60;99.90;;;;;;5072956;28;20465;-76
2021/12/05 16:10:20;;;;;;;14.95;9.52;;;4.60;99.90;;;;;;5073758;28;20052;-74
2021/12/05 16:12:48;;;;;;;12.95;8.88;;;4.60;99.90;;;;;;5056486;28;20499;-74
2021/12/05 16:15:16;;;;;;;13.25;9.95;;;4.50;99.90;;;;;;5056298;28;20056;-73
2021/12/05 16:17:42;;;;;;;15.73;9.98;;;4.50;99.90;;;;;;5074404;28;20051;-74
2021/12/05 16:20:14;;;;;;;14.77;10.35;;;4.50;99.90;;;;;;5073636;28;20358;-74
2021/12/05 16:22:55;;;;;;;19.23;13.32;;;4.40;99.90;;;;;;5073466;28;20040;-74
2021/12/05 16:25:21;;;;;;;18.95;11.18;;;4.40;99.90;;;;;;5073543;28;20400;-75
2021/12/05 16:27:50;;;;;;;12.45;9.35;;;4.40;99.90;;;;;;5073933;28;20036;-73
2021/12/05 16:30:25;;;;;;;16.60;9.82;;;4.40;99.90;;;;;;5073893;28;20586;-73
2021/12/05 16:32:52;;;;;;;15.18;9.98;;;4.40;99.90;;;;;;5056154;28;20037;-74
2021/12/05 16:35:35;;;;;;;18.25;12.45;;;4.40;99.90;;;;;;5073404;28;20036;-75
2021/12/05 16:38:18;;;;;;;21.10;12.52;;;4.30;99.90;;;;;;5073797;28;20067;-73
2021/12/05 16:41:10;;;;;;;19.88;13.38;;;4.30;99.90;;;;;;5074312;28;20056;-74
2021/12/05 16:43:39;;;;;;;16.17;10.73;;;4.20;99.90;;;;;;5069468;28;20454;-74
2021/12/05 16:46:18;;;;;;;18.48;11.95;;;4.20;99.90;;;;;;5055679;28;20434;-73
2021/12/05 16:48:45;;;;;;;15.90;10.80;;;4.20;99.90;;;;;;5073159;28;20048;-73
2021/12/05 16:51:19;;;;;;;21.60;12.05;;;4.20;99.90;;;;;;5072932;28;20045;-74
2021/12/05 16:53:47;;;;;;;23.35;12.02;;;4.20;99.90;;;;;;5072779;28;20079;-73
2021/12/05 16:56:32;;;;;;;23.15;11.25;;;4.20;99.90;;;;;;5072869;28;20690;-74
2021/12/05 16:59:17;;;;;;;16.50;11.20;;;4.20;99.90;;;;;;5072800;28;20396;-74
2021/12/05 17:01:43;;;;;;;18.58;11.68;;;4.20;99.90;;;;;;5073287;28;20490;-73
2021/12/05 17:04:11;;;;;;;21.50;11.38;;;4.10;99.90;;;;;;5080985;28;20134;-74
2021/12/05 17:06:45;;;;;;;19.20;12.13;;;4.10;99.90;;;;;;5092847;28;20484;-73
2021/12/05 17:09:13;;;;;;;17.90;10.50;;;4.10;99.90;;;;;;5075229;28;20361;-75
2021/12/05 17:11:38;;;;;;;13.30;9.70;;;4.10;99.90;;;;;;5093244;28;20048;-72
2021/12/05 17:14:05;;;;;;;17.25;10.40;;;4.10;99.90;;;;;;5093047;28;20058;-75
2021/12/05 17:16:32;;;;;;;24.88;13.35;;;4.00;99.90;;;;;;5075119;28;20353;-75
2021/12/05 17:19:07;;;;;;;20.63;13.30;;;4.00;99.90;;;;;;5092629;28;20044;-75
2021/12/05 17:21:41;;;;;;;22.30;12.63;;;4.00;99.90;;;;;;5075636;28;20457;-72
2021/12/05 17:24:26;;;;;;;20.88;13.32;;;4.00;99.90;;;;;;5075144;28;20051;-74
2021/12/05 17:27:05;;;;;;;20.98;12.70;;;4.00;99.90;;;;;;5093326;28;20039;-76
2021/12/05 17:29:38;;;;;;;26.33;15.15;;;4.10;99.90;;;;;;5093943;28;20040;-75
2021/12/05 17:32:10;;;;;;;26.95;14.77;;;4.10;99.90;;;;;;5093819;28;20079;-75
2021/12/05 17:34:51;;;;;;;24.40;14.50;;;4.10;99.90;;;;;;5093668;28;20044;-75
2021/12/05 17:37:23;;;;;;;24.60;14.73;;;4.10;99.90;;;;;;5093880;28;20097;-73
2021/12/05 17:39:50;;;;;;;25.25;14.55;;;4.20;99.90;;;;;;5092573;28;20051;-75
2021/12/05 17:42:22;;;;;;;29.67;15.23;;;4.20;99.90;;;;;;5092645;28;20334;-75
2021/12/05 17:44:50;;;;;;;25.35;14.80;;;4.20;99.90;;;;;;5074678;28;20092;-75
2021/12/05 17:47:17;;;;;;;23.77;15.18;;;4.30;99.90;;;;;;5092674;28;20462;-75
2021/12/05 17:49:47;;;;;;;28.13;14.90;;;4.30;99.90;;;;;;5074795;28;20111;-75
2021/12/05 17:52:15;;;;;;;27.85;14.65;;;4.30;99.90;;;;;;5092573;28;20182;-76
2021/12/05 17:57:21;;;;;;;23.67;13.93;;;4.40;99.90;;;;;;5095667;28;20043;-75
2021/12/05 18:05:18;;;;;;;31.48;14.65;;;4.40;99.90;;;;;;5079630;28;20059;-75
2021/12/05 18:07:47;;;;;;;26.85;14.27;;;4.50;99.90;;;;;;5076253;28;20055;-75
2021/12/05 18:10:15;;;;;;;25.20;13.15;;;4.50;99.90;;;;;;5075975;28;20048;-75
2021/12/05 18:12:43;;;;;;;33.83;16.55;;;4.50;99.90;;;;;;5075788;28;20040;-76
2021/12/05 18:15:19;;;;;;;29.77;16.08;;;4.50;99.90;;;;;;5058680;28;20052;-75
2021/12/05 18:17:45;;;;;;;36.65;15.20;;;4.50;99.90;;;;;;5075871;28;20048;-77
2021/12/05 18:20:15;;;;;;;34.33;17.00;;;4.60;99.90;;;;;;5076041;28;20103;-77
2021/12/05 18:22:41;;;;;;;37.37;17.43;;;4.60;99.90;;;;;;5076192;28;20482;-76
2021/12/05 18:25:09;;;;;;;34.35;16.98;;;4.60;99.90;;;;;;5058488;28;20279;-77
2021/12/05 18:27:36;;;;;;;41.72;19.15;;;4.60;99.90;;;;;;5076026;28;20045;-76
2021/12/05 18:30:05;;;;;;;36.05;19.90;;;4.60;99.90;;;;;;5076135;28;20101;-76
2021/12/05 18:32:31;;;;;;;45.10;19.45;;;4.60;99.90;;;;;;5041632;28;20070;-76
2021/12/05 18:34:57;;;;;;;39.38;19.80;;;4.60;99.90;;;;;;5058423;28;20037;-77
2021/12/05 18:37:23;;;;;;;40.13;19.15;;;4.70;99.90;;;;;;5075422;28;20059;-76
2021/12/05 18:39:51;;;;;;;38.85;20.45;;;4.70;99.90;;;;;;5075428;28;20044;-78
2021/12/05 18:42:19;;;;;;;43.33;20.40;;;4.70;99.90;;;;;;5057952;28;20048;-77
2021/12/05 18:44:50;;;;;;;47.47;20.88;;;4.70;99.90;;;;;;5074973;28;20125;-76
2021/12/05 18:47:17;;;;;;;37.97;18.95;;;4.70;99.90;;;;;;5074922;28;20044;-78